Time;durP1;ratioP1;P1;durP2;ratioP2;P2;SDS_P1;SDS_P2;PMS_P1;PMS_P2;Temp;Humidity;BMP_temperature;BMP_pressure;BME280_temperature;BME280_humidity;BME280_pressure;Samples;Min_cycle;Max_cycle;Signal;HPM_P1;HPM_P2
2023/07/18 00:01:42;;;;;;;3.30;1.92;;;15.70;99.90;;;;;;5006275;28;20037;-77
2023/07/18 00:04:07;;;;;;;4.72;1.35;;;15.70;99.90;;;;;;5005642;28;20095;-77
2023/07/18 00:06:33;;;;;;;8.40;1.92;;;15.70;99.90;;;;;;5007011;28;20041;-77
2023/07/18 00:08:59;;;;;;;3.83;1.85;;;15.60;99.90;;;;;;5018110;28;20048;-77
2023/07/18 00:11:25;;;;;;;2.42;1.20;;;15.60;99.90;;;;;;5005152;28;20700;-77
2023/07/18 00:13:50;;;;;;;5.63;1.58;;;15.60;99.90;;;;;;5021017;28;20488;-77
2023/07/18 00:16:16;;;;;;;4.90;1.85;;;15.60;99.90;;;;;;5019484;28;20164;-77
2023/07/18 00:18:42;;;;;;;1.85;1.40;;;15.60;99.90;;;;;;5005784;28;20201;-77
2023/07/18 00:21:07;;;;;;;3.47;1.40;;;15.60;99.90;;;;;;5005355;28;20100;-77
2023/07/18 00:23:34;;;;;;;3.58;1.50;;;15.50;99.90;;;;;;5005335;28;20054;-77
2023/07/18 00:25:59;;;;;;;5.30;1.88;;;15.50;99.90;;;;;;5004349;28;20046;-77
2023/07/18 00:28:25;;;;;;;5.72;1.42;;;15.50;99.90;;;;;;5007291;28;20518;-77
2023/07/18 00:30:51;;;;;;;7.03;1.90;;;15.50;99.90;;;;;;4987562;28;20042;-77
2023/07/18 00:33:16;;;;;;;4.07;1.52;;;15.50;99.90;;;;;;5004251;28;20054;-77
2023/07/18 00:35:43;;;;;;;6.00;2.30;;;15.50;99.90;;;;;;5015720;28;20046;-77
2023/07/18 00:38:11;;;;;;;8.35;1.45;;;15.50;99.90;;;;;;5020241;28;20096;-77
2023/07/18 00:40:40;;;;;;;2.22;1.45;;;15.50;99.90;;;;;;5004729;28;20042;-76
2023/07/18 00:43:14;;;;;;;5.75;1.33;;;15.60;99.90;;;;;;5004397;28;20084;-77
2023/07/18 00:45:40;;;;;;;8.68;2.13;;;15.60;99.90;;;;;;5018524;28;20044;-77
2023/07/18 00:48:07;;;;;;;1.75;1.45;;;15.60;99.90;;;;;;5024595;28;20041;-77
2023/07/18 00:50:33;;;;;;;2.67;1.33;;;15.50;99.90;;;;;;5023631;28;20492;-77
2023/07/18 00:53:00;;;;;;;9.75;1.40;;;15.60;99.90;;;;;;5023540;28;20096;-77
2023/07/18 00:55:27;;;;;;;4.43;1.63;;;15.50;99.90;;;;;;5007149;28;20121;-77
2023/07/18 00:57:53;;;;;;;3.30;1.23;;;15.50;99.90;;;;;;5021921;28;20049;-77
2023/07/18 01:00:22;;;;;;;5.85;1.60;;;15.60;99.90;;;;;;5023142;28;20046;-77
2023/07/18 01:02:49;;;;;;;4.22;1.52;;;15.50;99.90;;;;;;5020598;28;20424;-77
2023/07/18 01:05:19;;;;;;;7.38;1.58;;;15.50;99.90;;;;;;5003349;28;20053;-76
2023/07/18 01:07:46;;;;;;;2.70;1.40;;;15.50;99.90;;;;;;5014677;28;20046;-77
2023/07/18 01:10:23;;;;;;;3.92;1.63;;;15.50;99.90;;;;;;5008486;28;20124;-77
2023/07/18 01:12:56;;;;;;;4.88;1.83;;;15.50;99.90;;;;;;5009195;28;20409;-77
2023/07/18 01:15:23;;;;;;;3.65;1.65;;;15.50;99.90;;;;;;5003508;28;20129;-77
2023/07/18 01:17:49;;;;;;;5.88;1.30;;;15.50;99.90;;;;;;5004715;28;20042;-77
2023/07/18 01:20:21;;;;;;;6.57;1.40;;;15.40;99.90;;;;;;5003140;28;20053;-77
2023/07/18 01:22:49;;;;;;;6.28;1.35;;;15.40;99.90;;;;;;5003661;28;20192;-77
2023/07/18 01:25:19;;;;;;;4.78;1.75;;;15.40;99.90;;;;;;5003401;28;20042;-77
2023/07/18 01:27:46;;;;;;;2.63;1.10;;;15.40;99.90;;;;;;5002265;28;20049;-77
2023/07/18 01:30:13;;;;;;;4.75;1.40;;;15.40;99.90;;;;;;5005577;28;20084;-77
2023/07/18 01:32:39;;;;;;;1.80;1.40;;;15.40;99.90;;;;;;5015910;28;20569;-77
2023/07/18 01:35:08;;;;;;;5.75;2.28;;;15.40;99.90;;;;;;5022193;28;20037;-77
2023/07/18 01:37:35;;;;;;;8.18;1.58;;;15.50;99.90;;;;;;5039735;28;20049;-77
2023/07/18 01:40:00;;;;;;;4.85;1.55;;;15.40;99.90;;;;;;5021824;28;20076;-78
2023/07/18 01:42:26;;;;;;;4.72;1.95;;;15.50;99.90;;;;;;5024359;28;20073;-77
2023/07/18 01:44:52;;;;;;;2.63;1.35;;;15.50;99.90;;;;;;5022569;28;20057;-77
2023/07/18 01:47:18;;;;;;;7.35;2.08;;;15.50;99.90;;;;;;5022541;28;20410;-77
2023/07/18 01:49:43;;;;;;;8.10;3.10;;;15.50;99.90;;;;;;5023653;28;20049;-77
2023/07/18 01:52:10;;;;;;;3.65;1.70;;;15.40;99.90;;;;;;5023785;28;20045;-77
2023/07/18 01:54:36;;;;;;;2.97;1.23;;;15.40;99.90;;;;;;5023258;28;20098;-77
2023/07/18 01:57:01;;;;;;;5.13;2.13;;;15.40;99.90;;;;;;5023014;28;20046;-77
2023/07/18 01:59:27;;;;;;;2.92;1.25;;;15.40;99.90;;;;;;5013608;28;20496;-76
2023/07/18 02:01:53;;;;;;;3.95;1.95;;;15.40;99.90;;;;;;5006654;28;20052;-77
2023/07/18 02:04:18;;;;;;;4.38;1.48;;;15.30;99.90;;;;;;5019009;28;20050;-77
2023/07/18 02:06:44;;;;;;;6.10;1.27;;;15.30;99.90;;;;;;5003608;28;20421;-77
2023/07/18 02:09:11;;;;;;;2.50;1.60;;;15.30;99.90;;;;;;5002379;28;20050;-76
2023/07/18 02:11:37;;;;;;;5.30;1.80;;;15.30;99.90;;;;;;5002520;28;20137;-77
2023/07/18 02:14:03;;;;;;;4.40;1.60;;;15.30;99.90;;;;;;5002060;28;20128;-77
2023/07/18 02:16:29;;;;;;;3.63;1.83;;;15.30;99.90;;;;;;5003641;28;20049;-77
2023/07/18 02:19:00;;;;;;;3.60;1.13;;;15.30;99.90;;;;;;5002658;28;20096;-77
2023/07/18 02:21:26;;;;;;;4.70;1.73;;;15.30;99.90;;;;;;5002599;28;20061;-77
2023/07/18 02:23:51;;;;;;;5.55;1.63;;;15.30;99.90;;;;;;5003057;28;20072;-77
2023/07/18 02:26:17;;;;;;;4.63;1.98;;;15.30;99.90;;;;;;5002082;28;20092;-77
2023/07/18 02:28:42;;;;;;;4.68;1.85;;;15.30;99.90;;;;;;5004066;28;20747;-77
2023/07/18 02:31:08;;;;;;;3.03;1.52;;;15.30;99.90;;;;;;5002719;28;20040;-77
2023/07/18 02:33:34;;;;;;;6.63;2.05;;;15.30;99.90;;;;;;5003357;28;20041;-77
2023/07/18 02:35:59;;;;;;;4.97;1.58;;;15.30;99.90;;;;;;4985567;28;20049;-77
2023/07/18 02:38:25;;;;;;;5.68;1.20;;;15.30;99.90;;;;;;5002458;28;20471;-77
2023/07/18 02:40:51;;;;;;;4.88;1.48;;;15.20;99.90;;;;;;5007570;28;20085;-77
2023/07/18 02:43:17;;;;;;;3.55;1.60;;;15.20;99.90;;;;;;5006325;28;20042;-77
2023/07/18 02:45:43;;;;;;;4.45;1.73;;;15.20;99.90;;;;;;5006939;28;20100;-77
2023/07/18 02:48:08;;;;;;;5.05;2.10;;;15.20;99.90;;;;;;5006586;28;20103;-77
2023/07/18 02:50:35;;;;;;;7.32;2.20;;;15.20;99.90;;;;;;5007712;28;20053;-77
2023/07/18 02:53:00;;;;;;;4.78;1.50;;;15.20;99.90;;;;;;5006060;28;20117;-77
2023/07/18 02:55:27;;;;;;;10.27;1.70;;;15.20;99.90;;;;;;5006598;28;20441;-77
2023/07/18 02:57:53;;;;;;;4.57;1.67;;;15.20;99.90;;;;;;5007126;28;20057;-76
2023/07/18 03:00:19;;;;;;;5.68;1.77;;;15.20;99.90;;;;;;5006986;28;20488;-77
2023/07/18 03:02:49;;;;;;;3.67;1.67;;;15.10;99.90;;;;;;5015389;28;20052;-77
2023/07/18 03:05:16;;;;;;;5.70;1.92;;;15.10;99.90;;;;;;5025292;28;20049;-77
2023/07/18 03:07:44;;;;;;;3.90;1.75;;;15.10;99.90;;;;;;5008815;28;20057;-77
2023/07/18 03:10:10;;;;;;;5.60;1.63;;;15.00;99.90;;;;;;5040776;28;20057;-77
2023/07/18 03:12:36;;;;;;;6.03;1.90;;;15.00;99.90;;;;;;5027270;28;20091;-77
2023/07/18 03:15:02;;;;;;;9.23;1.90;;;15.10;99.90;;;;;;5025907;28;20108;-77
2023/07/18 03:17:27;;;;;;;5.88;1.38;;;15.00;99.90;;;;;;5027041;28;20045;-77
2023/07/18 03:19:53;;;;;;;3.85;1.42;;;15.00;99.90;;;;;;5025430;28;20041;-77
2023/07/18 03:22:19;;;;;;;5.15;1.98;;;15.10;99.90;;;;;;5025636;28;20164;-77
2023/07/18 03:24:47;;;;;;;6.07;2.00;;;15.00;99.90;;;;;;5041194;28;20046;-77
2023/07/18 03:27:13;;;;;;;2.80;1.60;;;15.00;99.90;;;;;;5041515;28;20064;-77
2023/07/18 03:29:38;;;;;;;6.05;1.63;;;15.00;99.90;;;;;;5007788;28;20046;-76
2023/07/18 03:32:05;;;;;;;5.32;1.60;;;15.00;99.90;;;;;;5023002;28;20115;-77
2023/07/18 03:34:30;;;;;;;3.28;1.70;;;15.00;99.90;;;;;;5026716;28;20085;-77
2023/07/18 03:36:56;;;;;;;6.85;2.30;;;15.00;99.90;;;;;;5026564;28;20483;-77
2023/07/18 03:39:22;;;;;;;4.43;1.50;;;15.00;99.90;;;;;;5040211;28;20091;-77
2023/07/18 03:41:47;;;;;;;4.47;2.17;;;15.00;99.90;;;;;;5026393;28;20152;-77
2023/07/18 03:44:13;;;;;;;3.85;1.98;;;15.00;99.90;;;;;;5026266;28;20042;-77
2023/07/18 03:46:38;;;;;;;4.07;2.00;;;15.00;99.90;;;;;;5025655;28;20132;-77
2023/07/18 03:49:04;;;;;;;3.85;1.63;;;15.00;99.90;;;;;;5025820;28;20048;-77
2023/07/18 03:51:30;;;;;;;4.38;2.03;;;15.00;99.90;;;;;;5025915;28;20038;-77
2023/07/18 03:53:55;;;;;;;4.13;1.90;;;15.10;99.90;;;;;;5025227;28;20618;-77
2023/07/18 03:56:21;;;;;;;4.53;1.58;;;15.10;99.90;;;;;;5041279;28;20073;-77
2023/07/18 03:58:46;;;;;;;7.22;1.95;;;15.10;99.90;;;;;;5016568;28;20139;-77
2023/07/18 04:01:13;;;;;;;6.53;1.92;;;15.10;99.90;;;;;;5005935;28;20073;-77
2023/07/18 04:03:39;;;;;;;6.70;2.15;;;15.10;99.90;;;;;;5005565;28;20057;-77
2023/07/18 04:06:06;;;;;;;9.25;1.70;;;15.10;99.90;;;;;;5006097;28;20042;-77
2023/07/18 04:08:32;;;;;;;5.25;2.22;;;15.20;99.90;;;;;;5005147;28;20053;-76
2023/07/18 04:10:58;;;;;;;9.80;2.20;;;15.20;99.90;;;;;;5004890;28;20060;-77
2023/07/18 04:13:25;;;;;;;7.70;1.88;;;15.20;99.90;;;;;;5004588;28;20440;-77
2023/07/18 04:15:53;;;;;;;13.27;1.98;;;15.30;99.90;;;;;;5005677;28;20073;-77
2023/07/18 04:18:19;;;;;;;9.05;1.55;;;15.30;99.90;;;;;;5005589;28;20101;-77
2023/07/18 04:20:44;;;;;;;4.18;2.10;;;15.30;99.90;;;;;;5005584;28;20060;-77
2023/07/18 04:23:10;;;;;;;4.43;2.10;;;15.30;99.90;;;;;;5003862;28;20041;-77
2023/07/18 04:25:55;;;;;;;5.38;1.50;;;15.30;99.90;;;;;;5005286;28;20050;-77
2023/07/18 04:28:20;;;;;;;3.08;1.52;;;15.30;99.90;;;;;;5005560;28;20092;-77
2023/07/18 04:30:46;;;;;;;4.13;1.75;;;15.30;99.90;;;;;;5004417;28;20050;-77
2023/07/18 04:33:12;;;;;;;4.60;1.98;;;15.30;99.90;;;;;;5004120;28;20038;-77
2023/07/18 04:35:39;;;;;;;6.95;1.48;;;15.40;99.90;;;;;;5021018;28;20038;-77
2023/07/18 04:38:05;;;;;;;2.47;1.63;;;15.40;99.90;;;;;;5002911;28;20053;-77
2023/07/18 04:40:31;;;;;;;5.25;2.03;;;15.40;99.90;;;;;;5005347;28;20042;-78
2023/07/18 04:42:56;;;;;;;5.80;1.95;;;15.40;99.90;;;;;;5004521;28;20484;-77
2023/07/18 04:45:22;;;;;;;7.70;2.30;;;15.40;99.90;;;;;;5004655;28;20058;-77
2023/07/18 04:47:48;;;;;;;5.60;2.33;;;15.50;99.90;;;;;;5002837;28;20099;-77
2023/07/18 04:50:15;;;;;;;6.78;2.22;;;15.50;99.90;;;;;;5004690;28;20081;-77
2023/07/18 04:52:40;;;;;;;6.32;1.90;;;15.50;99.90;;;;;;5003388;28;20081;-77
2023/07/18 04:55:06;;;;;;;6.38;2.40;;;15.60;99.90;;;;;;5010651;28;20570;-77
2023/07/18 04:57:32;;;;;;;6.90;1.90;;;15.60;99.90;;;;;;5033638;28;20085;-77
2023/07/18 04:59:57;;;;;;;11.73;2.53;;;15.60;99.90;;;;;;5005001;28;20046;-77
2023/07/18 05:02:23;;;;;;;10.98;1.95;;;15.60;99.90;;;;;;5003988;28;20528;-77
2023/07/18 05:04:48;;;;;;;9.45;2.30;;;15.60;99.90;;;;;;5004819;28;20049;-77
2023/07/18 05:07:14;;;;;;;7.32;1.83;;;15.70;99.90;;;;;;5003786;28;20527;-77
2023/07/18 05:09:40;;;;;;;5.10;2.28;;;15.70;99.90;;;;;;5003558;28;20129;-77
2023/07/18 05:12:06;;;;;;;5.68;2.05;;;15.70;99.90;;;;;;5004654;28;20112;-76
2023/07/18 05:14:32;;;;;;;5.07;2.10;;;15.80;99.90;;;;;;5002798;28;20042;-76
2023/07/18 05:16:58;;;;;;;10.98;1.80;;;15.80;99.90;;;;;;5006811;28;20088;-76
2023/07/18 05:19:24;;;;;;;4.97;2.45;;;15.80;99.90;;;;;;5019419;28;20385;-74
2023/07/18 05:21:50;;;;;;;6.70;2.25;;;15.80;99.90;;;;;;5004167;28;20084;-76
2023/07/18 05:24:16;;;;;;;6.40;2.20;;;15.90;99.90;;;;;;5002562;28;20133;-73
2023/07/18 05:26:42;;;;;;;5.68;2.35;;;15.90;99.90;;;;;;5004282;28;20540;-73
2023/07/18 05:29:07;;;;;;;5.53;2.20;;;15.90;99.90;;;;;;5005459;28;20053;-73
2023/07/18 05:31:33;;;;;;;5.88;2.67;;;15.90;99.90;;;;;;5003297;28;20498;-73
2023/07/18 05:33:59;;;;;;;9.07;2.83;;;16.00;99.90;;;;;;5004084;28;20548;-74
2023/07/18 05:36:25;;;;;;;7.57;2.00;;;16.00;99.90;;;;;;5011774;28;20090;-73
2023/07/18 05:38:51;;;;;;;12.15;3.10;;;16.00;99.90;;;;;;5022368;28;20042;-73
2023/07/18 05:41:16;;;;;;;6.25;2.03;;;16.10;99.90;;;;;;5018064;28;20112;-73
2023/07/18 05:43:42;;;;;;;6.25;2.58;;;16.20;99.90;;;;;;5021320;28;20483;-73
2023/07/18 05:46:08;;;;;;;3.55;1.90;;;16.20;99.90;;;;;;5006773;28;20697;-73
2023/07/18 05:48:34;;;;;;;11.57;2.33;;;16.20;99.90;;;;;;5038565;28;20084;-73
2023/07/18 05:51:00;;;;;;;4.13;1.90;;;16.30;99.90;;;;;;5022781;28;20057;-74
2023/07/18 05:53:26;;;;;;;5.70;2.72;;;16.30;99.90;;;;;;5022034;28;20610;-74
2023/07/18 05:55:52;;;;;;;10.60;2.92;;;16.30;99.90;;;;;;5020608;28;20048;-73
2023/07/18 05:58:18;;;;;;;7.45;2.67;;;16.30;99.90;;;;;;5018758;28;20037;-74
2023/07/18 06:00:44;;;;;;;6.85;2.47;;;16.40;99.90;;;;;;5021067;28;20044;-74
2023/07/18 06:03:10;;;;;;;8.27;2.47;;;16.40;99.90;;;;;;5005131;28;20052;-73
2023/07/18 06:05:35;;;;;;;14.13;2.67;;;16.40;99.90;;;;;;5009407;28;20121;-74
2023/07/18 06:08:01;;;;;;;11.38;2.35;;;16.50;99.90;;;;;;4983862;28;20084;-74
2023/07/18 06:10:27;;;;;;;11.77;3.20;;;16.60;99.90;;;;;;5002759;28;20133;-73
2023/07/18 06:12:53;;;;;;;13.82;2.67;;;16.60;99.90;;;;;;5020134;28;20053;-73
2023/07/18 06:15:18;;;;;;;9.63;2.50;;;16.60;99.90;;;;;;5017599;28;20037;-74
2023/07/18 06:17:44;;;;;;;10.77;3.17;;;16.70;99.90;;;;;;5001304;28;20125;-74
2023/07/18 06:20:13;;;;;;;12.90;3.00;;;16.70;99.90;;;;;;5002780;28;20038;-73
2023/07/18 06:22:40;;;;;;;7.20;2.60;;;16.80;99.90;;;;;;5013315;28;20380;-74
2023/07/18 06:25:06;;;;;;;11.95;2.70;;;16.90;99.90;;;;;;5022135;28;20053;-74
2023/07/18 06:27:32;;;;;;;8.40;2.75;;;16.90;99.90;;;;;;5036835;28;20041;-74
2023/07/18 06:29:58;;;;;;;14.05;3.10;;;17.00;99.90;;;;;;5038510;28;20183;-74
2023/07/18 06:32:25;;;;;;;13.35;3.03;;;17.00;99.90;;;;;;5025550;28;20487;-73
2023/07/18 06:34:50;;;;;;;7.93;2.67;;;17.10;99.90;;;;;;5014399;28;20045;-73
2023/07/18 06:37:16;;;;;;;8.73;2.35;;;17.10;99.90;;;;;;5021806;28;20041;-74
2023/07/18 06:39:42;;;;;;;5.60;2.63;;;17.10;99.90;;;;;;5021039;28;20137;-73
2023/07/18 06:42:10;;;;;;;5.95;1.75;;;17.20;99.90;;;;;;5035124;28;20034;-73
2023/07/18 06:44:36;;;;;;;12.07;2.05;;;17.20;99.90;;;;;;5011720;28;20272;-74
2023/07/18 06:47:02;;;;;;;3.67;1.20;;;17.20;99.90;;;;;;5007733;28;20045;-73
2023/07/18 06:49:28;;;;;;;2.95;1.20;;;17.30;99.90;;;;;;5017984;28;20452;-73
2023/07/18 06:51:53;;;;;;;7.15;1.55;;;17.30;99.90;;;;;;5000294;28;20072;-73
2023/07/18 06:54:19;;;;;;;2.67;1.70;;;17.30;99.90;;;;;;5010798;28;20046;-73
2023/07/18 06:56:45;;;;;;;5.68;1.50;;;17.40;99.90;;;;;;5005475;28;20045;-73
2023/07/18 06:59:13;;;;;;;5.72;1.40;;;17.40;99.90;;;;;;5020899;28;20550;-73
2023/07/18 07:01:39;;;;;;;4.38;1.05;;;17.40;99.90;;;;;;5001062;28;20530;-72
2023/07/18 07:04:04;;;;;;;3.95;1.40;;;17.40;99.90;;;;;;5008637;28;20331;-73
2023/07/18 07:06:31;;;;;;;2.35;1.15;;;17.40;99.90;;;;;;5005123;28;20037;-74
2023/07/18 07:08:57;;;;;;;6.40;2.30;;;17.40;99.90;;;;;;5003843;28;20061;-74
2023/07/18 07:11:22;;;;;;;7.40;1.90;;;17.40;99.90;;;;;;5004085;28;20046;-73
2023/07/18 07:13:48;;;;;;;7.80;2.67;;;17.50;99.90;;;;;;5008678;28;20566;-74
2023/07/18 07:16:14;;;;;;;7.25;1.95;;;17.60;99.90;;;;;;5001544;28;20042;-74
2023/07/18 07:18:39;;;;;;;6.90;1.48;;;17.60;99.90;;;;;;5000722;28;20393;-74
2023/07/18 07:21:06;;;;;;;4.00;1.42;;;17.60;99.90;;;;;;5016744;28;20112;-74
2023/07/18 07:23:31;;;;;;;4.85;1.13;;;17.60;99.90;;;;;;5018479;28;20057;-74
2023/07/18 07:25:58;;;;;;;2.05;1.85;;;17.60;99.90;;;;;;5020858;28;20041;-74
2023/07/18 07:28:23;;;;;;;9.50;1.73;;;17.60;99.90;;;;;;5003196;28;20099;-74
2023/07/18 07:30:50;;;;;;;2.67;1.63;;;17.60;99.90;;;;;;5004065;28;20403;-73
2023/07/18 07:33:16;;;;;;;2.75;1.45;;;17.70;99.90;;;;;;5004931;28;20161;-74
2023/07/18 07:35:43;;;;;;;4.80;1.88;;;17.70;99.90;;;;;;5005611;28;20080;-74
2023/07/18 07:38:09;;;;;;;11.10;2.47;;;17.80;99.90;;;;;;5004293;28;20045;-75
2023/07/18 07:40:35;;;;;;;4.10;1.33;;;17.80;99.90;;;;;;5031709;28;20112;-73
2023/07/18 07:43:00;;;;;;;5.65;1.35;;;17.80;99.90;;;;;;5004604;28;20081;-74
2023/07/18 07:45:26;;;;;;;5.82;2.05;;;17.80;99.90;;;;;;5009218;28;20428;-73
2023/07/18 07:47:52;;;;;;;5.07;1.40;;;17.80;99.90;;;;;;5010258;28;20041;-72
2023/07/18 07:50:17;;;;;;;8.85;2.25;;;17.80;99.90;;;;;;5004566;28;20045;-73
2023/07/18 07:52:45;;;;;;;8.40;2.25;;;17.90;99.90;;;;;;5003181;28;20652;-73
2023/07/18 07:55:12;;;;;;;5.50;2.13;;;17.90;99.90;;;;;;5004776;28;20046;-73
2023/07/18 07:57:37;;;;;;;5.13;1.65;;;18.00;99.90;;;;;;5006363;28;20370;-73
2023/07/18 08:00:04;;;;;;;7.82;1.45;;;18.00;99.90;;;;;;5016955;28;20037;-72
2023/07/18 08:02:29;;;;;;;9.20;2.38;;;18.10;99.90;;;;;;5013996;28;20425;-75
2023/07/18 08:04:55;;;;;;;6.70;2.15;;;18.10;99.90;;;;;;5007336;28;20041;-73
2023/07/18 08:07:21;;;;;;;6.72;1.75;;;18.10;99.90;;;;;;5010888;28;20057;-73
2023/07/18 08:09:46;;;;;;;9.45;1.92;;;18.10;99.90;;;;;;5004971;28;20077;-72
2023/07/18 08:12:12;;;;;;;6.95;1.67;;;18.00;99.90;;;;;;5004991;28;20485;-72
2023/07/18 08:14:38;;;;;;;6.82;1.27;;;18.00;99.90;;;;;;5017913;28;20041;-72
2023/07/18 08:17:05;;;;;;;8.98;2.08;;;18.00;99.90;;;;;;5006398;28;20033;-73
2023/07/18 08:19:35;;;;;;;8.70;1.80;;;18.00;99.90;;;;;;5005437;28;20420;-73
2023/07/18 08:22:02;;;;;;;6.85;1.42;;;18.00;99.90;;;;;;5021767;28;20046;-74
2023/07/18 08:24:28;;;;;;;7.05;1.98;;;18.00;99.90;;;;;;5023942;28;20084;-72
2023/07/18 08:26:54;;;;;;;7.93;1.45;;;18.00;99.90;;;;;;5024506;28;20507;-73
2023/07/18 08:29:19;;;;;;;5.57;1.58;;;18.00;99.90;;;;;;5006695;28;20038;-73
2023/07/18 08:31:46;;;;;;;4.97;2.08;;;18.10;99.90;;;;;;5013611;28;20042;-73
2023/07/18 08:34:11;;;;;;;6.18;1.50;;;18.10;99.90;;;;;;4986302;28;20045;-72
2023/07/18 08:36:37;;;;;;;5.68;1.55;;;18.20;99.90;;;;;;5003100;28;20049;-73
2023/07/18 08:39:03;;;;;;;4.40;1.40;;;18.20;99.90;;;;;;4999279;28;20048;-75
2023/07/18 08:41:29;;;;;;;3.45;1.08;;;18.30;99.90;;;;;;5004528;28;20041;-72
2023/07/18 08:43:56;;;;;;;6.35;1.35;;;18.40;99.90;;;;;;5014124;28;20480;-72
2023/07/18 08:46:22;;;;;;;10.23;1.83;;;18.40;99.90;;;;;;5008586;28;20639;-74
2023/07/18 08:48:51;;;;;;;4.75;1.50;;;18.40;99.90;;;;;;5016681;28;20057;-72
2023/07/18 08:51:16;;;;;;;7.00;1.63;;;18.40;99.90;;;;;;5026351;28;20088;-73
2023/07/18 08:53:42;;;;;;;2.70;1.55;;;18.30;99.90;;;;;;5017652;28;20073;-72
2023/07/18 08:56:08;;;;;;;5.78;1.98;;;18.30;99.90;;;;;;5006923;28;20049;-73
2023/07/18 08:58:38;;;;;;;5.32;1.42;;;18.30;99.90;;;;;;5011154;28;20056;-73
2023/07/18 09:01:06;;;;;;;6.47;1.55;;;18.30;99.90;;;;;;5021242;28;20140;-74
2023/07/18 09:03:32;;;;;;;4.07;1.25;;;18.30;99.90;;;;;;5007622;28;20050;-75
2023/07/18 09:06:02;;;;;;;2.92;1.27;;;18.30;99.90;;;;;;4987872;28;20538;-75
2023/07/18 09:08:27;;;;;;;6.35;1.45;;;18.30;99.90;;;;;;5013003;28;20140;-76
2023/07/18 09:11:03;;;;;;;7.78;1.30;;;18.40;99.90;;;;;;5018969;28;20133;-75
2023/07/18 09:13:37;;;;;;;3.90;1.42;;;18.50;99.90;;;;;;5007134;28;20052;-74
2023/07/18 09:16:22;;;;;;;2.15;1.50;;;18.60;99.90;;;;;;5015032;28;20057;-74
2023/07/18 09:18:49;;;;;;;4.55;1.50;;;18.70;99.90;;;;;;5038305;28;20068;-75
2023/07/18 09:21:15;;;;;;;2.67;1.00;;;18.70;99.90;;;;;;5009952;28;20492;-75
2023/07/18 09:23:42;;;;;;;1.35;0.95;;;18.70;99.90;;;;;;5026098;28;20132;-74
2023/07/18 09:26:10;;;;;;;9.00;1.30;;;18.80;99.90;;;;;;4999096;28;20044;-74
2023/07/18 09:28:36;;;;;;;7.40;1.63;;;18.80;99.90;;;;;;5000089;28;20523;-74
2023/07/18 09:31:02;;;;;;;4.10;1.23;;;18.80;99.90;;;;;;5001248;28;20233;-76
2023/07/18 09:33:28;;;;;;;1.55;1.05;;;18.80;99.90;;;;;;4975075;28;20257;-75
2023/07/18 09:36:01;;;;;;;2.80;1.10;;;18.90;99.90;;;;;;4972495;28;20131;-75
2023/07/18 09:38:27;;;;;;;2.55;1.08;;;19.00;99.90;;;;;;4991361;28;20050;-74
2023/07/18 09:40:54;;;;;;;1.75;0.90;;;19.00;99.90;;;;;;5008869;28;20451;-76
2023/07/18 09:43:23;;;;;;;5.28;0.98;;;19.10;99.90;;;;;;5003301;28;20057;-74
2023/07/18 09:45:52;;;;;;;3.80;1.40;;;19.20;99.90;;;;;;4992349;28;20057;-75
2023/07/18 09:48:18;;;;;;;3.50;1.02;;;19.20;99.90;;;;;;5005981;28;20068;-76
2023/07/18 09:50:48;;;;;;;4.80;1.25;;;19.20;99.90;;;;;;5014320;28;20034;-76
2023/07/18 09:53:16;;;;;;;2.97;1.13;;;19.30;99.90;;;;;;5006164;28;20493;-74
2023/07/18 09:55:43;;;;;;;2.97;1.08;;;19.40;99.90;;;;;;5004031;28;20030;-75
2023/07/18 09:58:12;;;;;;;9.63;1.80;;;19.40;99.90;;;;;;5003162;28;20060;-75
2023/07/18 10:00:41;;;;;;;6.90;1.67;;;19.40;99.90;;;;;;5009932;28;20065;-75
2023/07/18 10:03:08;;;;;;;4.85;1.25;;;19.50;99.90;;;;;;5017937;28;20786;-75
2023/07/18 10:05:34;;;;;;;4.25;1.30;;;19.50;99.90;;;;;;5002230;28;20104;-75
2023/07/18 10:08:06;;;;;;;2.85;1.20;;;19.50;99.90;;;;;;5009929;28;20069;-75
2023/07/18 10:10:32;;;;;;;;;;;19.60;99.90;;;;;;5005879;28;20073;-74
2023/07/18 10:12:59;;;;;;;2.72;1.67;;;19.80;99.90;;;;;;5002478;28;19925;-75
2023/07/18 10:15:26;;;;;;;4.05;1.60;;;19.90;99.90;;;;;;5007300;28;20045;-74
2023/07/18 10:17:52;;;;;;;2.40;1.58;;;20.00;99.90;;;;;;5001125;28;20132;-75
2023/07/18 10:20:21;;;;;;;4.80;1.48;;;20.10;99.90;;;;;;5018524;28;20069;-74
2023/07/18 10:22:57;;;;;;;5.35;1.25;;;20.20;99.90;;;;;;5003423;28;20132;-73
2023/07/18 10:25:25;;;;;;;6.35;1.40;;;20.30;99.90;;;;;;5001092;28;20077;-73
2023/07/18 10:27:51;;;;;;;6.53;1.20;;;20.20;99.90;;;;;;5003136;28;20042;-74
2023/07/18 10:30:18;;;;;;;6.32;1.42;;;20.20;99.90;;;;;;5018274;28;20129;-73
2023/07/18 10:32:55;;;;;;;4.32;1.60;;;20.20;99.90;;;;;;5004446;28;20392;-74
2023/07/18 10:35:24;;;;;;;8.07;1.90;;;20.20;99.90;;;;;;5002367;28;20170;-73
2023/07/18 10:37:55;;;;;;;9.55;2.40;;;20.20;99.90;;;;;;5016895;28;20046;-75
2023/07/18 10:40:35;;;;;;;3.45;2.05;;;20.30;99.90;;;;;;5001885;28;20045;-75
2023/07/18 10:43:03;;;;;;;6.80;1.58;;;20.30;99.90;;;;;;5017011;28;20042;-76
2023/07/18 10:45:36;;;;;;;3.67;2.65;;;20.30;99.90;;;;;;5007253;28;20073;-75
2023/07/18 10:48:12;;;;;;;5.97;2.80;;;20.30;99.90;;;;;;5005034;28;20083;-74
2023/07/18 10:50:38;;;;;;;6.10;2.30;;;20.40;99.90;;;;;;5003826;28;20396;-74
2023/07/18 10:53:03;;;;;;;4.50;1.77;;;20.50;99.90;;;;;;4994312;28;20041;-74
2023/07/18 10:55:29;;;;;;;3.60;2.10;;;20.50;99.90;;;;;;5002478;28;20103;-75
2023/07/18 10:57:55;;;;;;;5.55;2.20;;;20.60;99.90;;;;;;5004337;28;20057;-72
2023/07/18 11:00:24;;;;;;;3.72;2.00;;;20.60;99.90;;;;;;5004070;28;20108;-71
2023/07/18 11:02:50;;;;;;;5.85;2.25;;;20.60;99.90;;;;;;5006872;28;20123;-72
2023/07/18 11:05:16;;;;;;;6.53;2.47;;;20.60;99.90;;;;;;5003179;28;20536;-71
2023/07/18 11:07:47;;;;;;;6.15;3.08;;;20.60;99.90;;;;;;5003403;28;20101;-71
2023/07/18 11:10:13;;;;;;;2.87;2.57;;;20.60;99.90;;;;;;5001891;28;20046;-70
2023/07/18 11:12:40;;;;;;;6.03;2.30;;;20.60;99.90;;;;;;5005107;28;20121;-71
2023/07/18 11:15:08;;;;;;;3.72;1.85;;;20.60;99.90;;;;;;5020954;28;20261;-71
2023/07/18 11:17:34;;;;;;;10.18;2.53;;;20.60;99.90;;;;;;5012427;28;20404;-71
2023/07/18 11:20:02;;;;;;;2.42;2.22;;;20.70;99.90;;;;;;5006986;28;20815;-72
2023/07/18 11:22:29;;;;;;;3.88;2.30;;;20.80;99.90;;;;;;5009251;28;20144;-70
2023/07/18 11:24:55;;;;;;;5.95;1.95;;;20.80;99.90;;;;;;5006280;28;20061;-71
2023/07/18 11:27:25;;;;;;;2.70;2.08;;;20.80;99.90;;;;;;5006780;28;20543;-70
2023/07/18 11:30:09;;;;;;;4.53;2.20;;;20.80;99.90;;;;;;5004735;28;20100;-71
2023/07/18 11:32:45;;;;;;;5.28;2.83;;;20.80;99.90;;;;;;5013700;28;20041;-70
2023/07/18 11:35:18;;;;;;;6.43;1.70;;;20.80;99.90;;;;;;5021767;28;20077;-71
2023/07/18 11:37:46;;;;;;;4.63;2.22;;;20.90;99.90;;;;;;5002524;28;20041;-72
2023/07/18 11:40:20;;;;;;;8.30;2.70;;;20.90;99.90;;;;;;5015441;28;20448;-72
2023/07/18 11:42:51;;;;;;;4.65;2.03;;;21.00;99.90;;;;;;5014109;28;20084;-73
2023/07/18 11:45:18;;;;;;;5.47;2.27;;;21.00;99.90;;;;;;5004855;28;20334;-74
2023/07/18 11:47:48;;;;;;;3.03;1.52;;;21.10;99.90;;;;;;5025682;28;20036;-71
2023/07/18 11:50:14;;;;;;;4.78;1.42;;;21.20;99.90;;;;;;5008193;28;20038;-74
2023/07/18 11:52:44;;;;;;;4.47;1.63;;;21.20;99.90;;;;;;5014753;28;20040;-74
2023/07/18 11:55:10;;;;;;;4.93;1.38;;;21.30;99.90;;;;;;5006205;28;20081;-74
2023/07/18 11:57:36;;;;;;;5.63;1.70;;;21.40;99.90;;;;;;5003782;28;20088;-74
2023/07/18 12:00:02;;;;;;;5.85;1.77;;;21.40;99.90;;;;;;5012785;28;20095;-75
2023/07/18 12:02:27;;;;;;;3.80;1.63;;;21.50;99.90;;;;;;5008745;28;20049;-74
2023/07/18 12:04:55;;;;;;;2.75;1.20;;;21.50;99.90;;;;;;5015158;28;20116;-74
2023/07/18 12:07:20;;;;;;;2.38;1.23;;;21.60;99.90;;;;;;5020019;28;20080;-75
2023/07/18 12:09:46;;;;;;;3.85;1.08;;;21.50;99.90;;;;;;5019326;28;20467;-74
2023/07/18 12:12:11;;;;;;;3.42;1.42;;;21.60;99.90;;;;;;5004043;28;20519;-74
2023/07/18 12:14:37;;;;;;;3.35;1.30;;;21.60;99.90;;;;;;5004699;28;20129;-74
2023/07/18 12:17:03;;;;;;;5.47;1.48;;;21.60;99.90;;;;;;5016654;28;20045;-75
2023/07/18 12:19:28;;;;;;;2.35;1.15;;;21.60;99.90;;;;;;5023143;28;20161;-74
2023/07/18 12:21:54;;;;;;;3.08;1.65;;;21.70;99.90;;;;;;5022655;28;20041;-74
2023/07/18 12:24:20;;;;;;;4.45;1.05;;;21.70;99.90;;;;;;5021248;28;20518;-75
2023/07/18 12:26:45;;;;;;;3.75;1.35;;;21.70;99.90;;;;;;5022266;28;20144;-75
2023/07/18 12:29:16;;;;;;;2.42;1.08;;;21.70;99.90;;;;;;5039334;28;20049;-74
2023/07/18 12:31:49;;;;;;;1.75;1.08;;;21.70;99.90;;;;;;5024118;28;20168;-74
2023/07/18 12:34:15;;;;;;;1.40;0.98;;;21.80;99.90;;;;;;5021837;28;20116;-74
2023/07/18 12:36:40;;;;;;;2.00;0.80;;;21.80;99.90;;;;;;5022031;28;20049;-74
2023/07/18 12:39:06;;;;;;;1.77;0.95;;;21.80;99.90;;;;;;5021883;28;20112;-74
2023/07/18 12:41:31;;;;;;;2.78;0.90;;;21.90;99.90;;;;;;5003194;28;20492;-74
2023/07/18 12:43:57;;;;;;;1.67;0.70;;;21.90;99.90;;;;;;5004372;28;20038;-74